Time;durP1;ratioP1;P1;durP2;ratioP2;P2;SDS_P1;SDS_P2;PMS_P1;PMS_P2;Temp;Humidity;BMP_temperature;BMP_pressure;BME280_temperature;BME280_humidity;BME280_pressure;Samples;Min_cycle;Max_cycle;Signal;HPM_P1;HPM_P2
2022/01/12 00:01:20;;;;;;;25.67;12.48;;;;;;;2.24;92.57;103481.94;5089177;28;20073;-67
2022/01/12 00:03:46;;;;;;;17.23;9.10;;;;;;;2.26;92.09;103485.34;5089164;28;20032;-67
2022/01/12 00:06:13;;;;;;;20.52;10.73;;;;;;;2.28;91.56;103479.09;5089683;28;20395;-67
2022/01/12 00:08:38;;;;;;;19.55;8.70;;;;;;;2.33;92.21;103476.19;5089403;28;20036;-66
2022/01/12 00:11:05;;;;;;;20.98;9.60;;;;;;;2.36;91.80;103479.53;5089072;28;20039;-66
2022/01/12 00:13:31;;;;;;;18.00;8.38;;;;;;;2.39;91.29;103497.81;5089573;28;20035;-67
2022/01/12 00:15:56;;;;;;;19.58;10.05;;;;;;;2.41;91.14;103506.50;5089473;28;20032;-67
2022/01/12 00:18:22;;;;;;;19.63;9.80;;;;;;;2.45;91.39;103511.59;5088296;28;20024;-66
2022/01/12 00:20:51;;;;;;;20.10;9.93;;;;;;;2.45;91.30;103501.91;5089434;28;20466;-67
2022/01/12 00:23:18;;;;;;;20.20;9.77;;;;;;;2.48;91.35;103501.75;5087947;28;20524;-67
2022/01/12 00:26:08;;;;;;;21.35;8.85;;;;;;;2.49;91.36;103497.34;5089579;28;20044;-66
2022/01/12 00:34:02;;;;;;;22.08;10.10;;;;;;;2.51;90.27;103506.88;5089332;28;20035;-66
2022/01/12 00:36:29;;;;;;;20.63;8.85;;;;;;;2.53;90.02;103507.66;5088634;28;20033;-66
2022/01/12 00:38:54;;;;;;;19.92;10.45;;;;;;;2.53;90.31;103514.69;5089174;28;20028;-66
2022/01/12 00:41:20;;;;;;;20.55;9.32;;;;;;;2.52;90.42;103521.75;5089208;28;20480;-66
2022/01/12 00:43:49;;;;;;;22.42;10.85;;;;;;;2.54;90.60;103521.66;5089205;28;20495;-66
2022/01/12 00:46:15;;;;;;;18.52;9.75;;;;;;;2.50;90.63;103528.88;5089161;28;20053;-67
2022/01/12 00:48:41;;;;;;;21.92;11.15;;;;;;;2.51;91.17;103535.84;5089109;28;20032;-67
2022/01/12 00:51:08;;;;;;;22.25;10.70;;;;;;;2.48;91.50;103537.78;5089139;28;20039;-66
2022/01/12 00:53:33;;;;;;;21.77;9.35;;;;;;;2.48;92.00;103541.25;5089203;28;20048;-66
2022/01/12 00:55:59;;;;;;;22.80;9.88;;;;;;;2.45;92.55;103538.78;5088672;28;20089;-66
2022/01/12 00:58:24;;;;;;;19.70;9.38;;;;;;;2.38;92.63;103537.38;5088393;28;20070;-66
2022/01/12 01:00:50;;;;;;;20.52;9.32;;;;;;;2.34;92.76;103531.44;5089090;28;20032;-67
2022/01/12 01:03:15;;;;;;;22.92;9.70;;;;;;;2.33;93.61;103537.63;5088572;28;20383;-66
2022/01/12 01:05:41;;;;;;;26.30;11.43;;;;;;;2.34;93.65;103547.22;5090598;28;20042;-66
2022/01/12 01:08:07;;;;;;;20.25;10.15;;;;;;;2.29;94.30;103549.25;5092952;28;20151;-66
2022/01/12 01:13:05;;;;;;;22.98;10.70;;;;;;;2.27;94.96;103558.13;5073426;28;20365;-66
2022/01/12 01:26:34;;;;;;;22.48;10.18;;;;;;;2.11;96.83;103527.28;5092141;28;20590;-66
2022/01/12 01:29:00;;;;;;;23.35;11.82;;;;;;;2.08;96.54;103523.97;5092498;28;20027;-67
2022/01/12 01:31:32;;;;;;;20.23;10.00;;;;;;;2.00;97.09;103521.72;5092462;28;20600;-66
2022/01/12 01:34:07;;;;;;;22.60;11.15;;;;;;;2.02;97.36;103540.91;5092520;28;20620;-66
2022/01/12 01:36:35;;;;;;;24.13;10.93;;;;;;;1.94;97.46;103536.03;5092213;28;20024;-66
2022/01/12 01:39:01;;;;;;;24.40;12.95;;;;;;;1.94;97.72;103536.03;5091922;28;20115;-67
2022/01/12 01:41:26;;;;;;;23.60;11.07;;;;;;;1.99;97.99;103554.19;5091992;28;20103;-67
2022/01/12 01:44:32;;;;;;;23.10;12.02;;;;;;;1.97;97.79;103554.28;5092431;28;20114;-67
2022/01/12 01:55:04;;;;;;;24.92;12.02;;;;;;;1.93;98.96;103542.19;5092350;28;20109;-67
2022/01/12 01:57:31;;;;;;;24.95;12.73;;;;;;;1.92;98.63;103531.75;5092024;28;20050;-66
2022/01/12 01:59:57;;;;;;;20.90;11.55;;;;;;;1.94;98.96;103530.75;5092046;28;20032;-66
2022/01/12 02:02:22;;;;;;;23.90;12.82;;;;;;;1.95;98.96;103536.88;5091971;28;20119;-66
2022/01/12 02:04:48;;;;;;;29.48;13.45;;;;;;;1.85;99.44;103525.06;5091753;28;20114;-66
2022/01/12 02:07:14;;;;;;;23.50;12.20;;;;;;;1.90;99.54;103528.34;5091415;28;20020;-66
2022/01/12 02:09:40;;;;;;;27.50;13.18;;;;;;;1.87;99.67;103518.81;5091776;28;20035;-66
2022/01/12 02:12:05;;;;;;;23.83;11.57;;;;;;;1.88;99.67;103523.13;5091580;28;20028;-66
2022/01/12 02:14:31;;;;;;;24.98;13.30;;;;;;;1.89;99.76;103521.38;5091768;28;20040;-66
2022/01/12 02:17:03;;;;;;;22.95;14.05;;;;;;;1.88;99.57;103519.66;5091176;28;20654;-66
2022/01/12 02:35:52;;;;;;;24.90;13.88;;;;;;;1.81;100.00;103541.91;5091261;28;20453;-66
2022/01/12 02:41:04;;;;;;;24.95;12.63;;;;;;;1.86;100.00;103553.97;5090516;28;20165;-67
2022/01/12 02:51:36;;;;;;;27.38;15.88;;;;;;;1.93;100.00;103554.50;5091206;28;20051;-67
2022/01/12 02:54:03;;;;;;;29.30;13.90;;;;;;;1.95;100.00;103565.81;5089483;28;20142;-67
2022/01/12 02:56:32;;;;;;;29.55;13.57;;;;;;;1.93;100.00;103560.63;5084183;28;20445;-67
2022/01/12 02:58:59;;;;;;;28.77;15.30;;;;;;;1.95;100.00;103569.28;5071453;28;20078;-67
2022/01/12 03:04:02;;;;;;;30.30;13.43;;;;;;;1.95;100.00;103563.19;5090686;28;20040;-66
2022/01/12 03:06:34;;;;;;;25.45;14.52;;;;;;;1.97;100.00;103575.34;5090633;28;20020;-66
2022/01/12 03:08:59;;;;;;;;;;;;;;;1.98;100.00;103584.94;5091051;28;20023;-66
2022/01/12 03:11:27;;;;;;;23.10;13.57;;;;;;;1.99;100.00;103588.41;5090666;28;19973;-66
2022/01/12 03:13:53;;;;;;;26.65;14.88;;;;;;;1.99;100.00;103601.56;5090569;28;20432;-66
2022/01/12 03:16:23;;;;;;;26.33;15.90;;;;;;;2.00;100.00;103590.16;5090421;28;20403;-67
2022/01/12 03:18:52;;;;;;;26.17;14.63;;;;;;;2.01;100.00;103599.72;5090511;28;20020;-66
2022/01/12 03:21:20;;;;;;;28.05;13.43;;;;;;;2.00;100.00;103613.84;5090419;28;20024;-67
2022/01/12 03:23:46;;;;;;;27.67;14.65;;;;;;;2.03;100.00;103613.69;5090577;28;20028;-67
2022/01/12 03:26:12;;;;;;;27.98;13.27;;;;;;;2.01;100.00;103606.78;5090301;28;20230;-66
2022/01/12 03:28:39;;;;;;;26.20;13.68;;;;;;;2.03;100.00;103607.56;5089017;28;20188;-67
2022/01/12 03:38:38;;;;;;;28.63;13.88;;;;;;;2.05;100.00;103609.19;5090155;28;20475;-66
2022/01/12 03:41:03;;;;;;;34.38;15.60;;;;;;;2.06;100.00;103603.00;5089483;28;20028;-66
2022/01/12 03:43:29;;;;;;;24.33;12.18;;;;;;;2.06;100.00;103605.63;5089623;28;20028;-66
2022/01/12 03:45:54;;;;;;;30.35;15.48;;;;;;;2.07;100.00;103607.38;5089938;28;20467;-66
2022/01/12 03:48:20;;;;;;;25.83;16.13;;;;;;;2.06;100.00;103604.78;5089951;28;20039;-67
2022/01/12 03:50:45;;;;;;;29.90;14.43;;;;;;;2.05;100.00;103603.94;5088875;28;20089;-66
2022/01/12 03:53:10;;;;;;;30.08;14.55;;;;;;;2.05;100.00;103614.47;5089529;28;20064;-66
2022/01/12 03:55:36;;;;;;;31.08;15.10;;;;;;;2.01;100.00;103605.00;5089242;28;20039;-66
2022/01/12 03:58:01;;;;;;;26.13;15.10;;;;;;;2.02;100.00;103609.34;5089526;28;20040;-66
2022/01/12 04:00:27;;;;;;;29.90;15.27;;;;;;;2.02;100.00;103629.53;5088325;28;20024;-67
2022/01/12 04:02:52;;;;;;;26.65;14.45;;;;;;;2.01;100.00;103633.09;5089570;28;20028;-66
2022/01/12 04:10:32;;;;;;;27.98;13.30;;;;;;;2.01;100.00;103631.31;5089305;28;20050;-67
2022/01/12 04:12:58;;;;;;;32.35;15.07;;;;;;;1.98;100.00;103632.31;5089462;28;20035;-66
2022/01/12 04:15:23;;;;;;;30.52;15.95;;;;;;;2.02;100.00;103632.16;5088240;28;20028;-66
2022/01/12 04:17:49;;;;;;;33.78;17.90;;;;;;;2.03;100.00;103636.53;5089374;28;20070;-66
2022/01/12 04:20:14;;;;;;;30.33;15.23;;;;;;;2.03;100.00;103637.38;5089496;28;20043;-67
2022/01/12 04:25:25;;;;;;;30.05;16.42;;;;;;;2.01;100.00;103633.94;5089359;28;20525;-66
2022/01/12 04:27:51;;;;;;;29.83;14.25;;;;;;;2.04;100.00;103640.84;5089417;28;20132;-67
2022/01/12 04:30:16;;;;;;;28.08;15.63;;;;;;;1.98;100.00;103631.47;5089333;28;20036;-67
2022/01/12 04:32:42;;;;;;;25.52;15.27;;;;;;;2.04;100.00;103630.31;5089171;28;20032;-66
2022/01/12 04:35:10;;;;;;;32.47;15.90;;;;;;;2.05;100.00;103624.16;5088892;28;20032;-66
2022/01/12 04:37:35;;;;;;;27.92;14.35;;;;;;;2.05;100.00;103622.38;5089287;28;20036;-67
2022/01/12 04:40:01;;;;;;;32.33;17.83;;;;;;;2.05;100.00;103624.16;5093211;28;20039;-67
2022/01/12 04:42:27;;;;;;;30.30;14.63;;;;;;;2.04;100.00;103625.91;5095802;28;20507;-66
2022/01/12 04:45:00;;;;;;;29.77;15.32;;;;;;;2.03;100.00;103612.84;5095407;28;20065;-67
2022/01/12 04:47:46;;;;;;;31.20;17.45;;;;;;;2.02;100.00;103600.59;5095991;28;20020;-66
2022/01/12 04:50:11;;;;;;;32.05;18.08;;;;;;;2.03;100.00;103599.66;5096056;28;20093;-67
2022/01/12 04:52:37;;;;;;;33.00;17.60;;;;;;;2.03;100.00;103605.78;5095747;28;20413;-67
2022/01/12 04:55:03;;;;;;;30.95;17.83;;;;;;;2.02;100.00;103609.34;5095557;28;20491;-66
2022/01/12 04:57:28;;;;;;;32.20;17.02;;;;;;;2.03;100.00;103607.56;5095744;28;20392;-67
2022/01/12 05:00:36;;;;;;;38.42;19.15;;;;;;;2.03;100.00;103607.56;5095630;28;20030;-67
2022/01/12 05:08:36;;;;;;;37.05;18.17;;;;;;;1.97;100.00;103608.72;5095938;28;20089;-66
2022/01/12 05:13:51;;;;;;;39.97;19.58;;;;;;;1.97;100.00;103616.63;5096102;28;20046;-66
2022/01/12 05:16:17;;;;;;;38.20;18.77;;;;;;;1.96;100.00;103622.78;5076202;28;20025;-66
2022/01/12 05:18:45;;;;;;;34.53;16.38;;;;;;;1.95;100.00;103621.09;5076203;28;20067;-66
2022/01/12 05:21:11;;;;;;;34.13;18.40;;;;;;;1.93;100.00;103622.94;5074905;28;20065;-66
2022/01/12 05:23:36;;;;;;;36.47;20.30;;;;;;;1.93;100.00;103623.78;5095380;28;20032;-66
2022/01/12 05:26:03;;;;;;;32.85;19.73;;;;;;;1.89;100.00;103616.97;5095208;28;20028;-66
2022/01/12 05:28:29;;;;;;;36.30;18.50;;;;;;;1.90;100.00;103623.94;5083065;28;20148;-67
2022/01/12 05:30:55;;;;;;;34.42;17.77;;;;;;;1.89;100.00;103619.59;5076180;28;20032;-67
2022/01/12 05:33:23;;;;;;;34.47;18.23;;;;;;;1.94;100.00;103632.56;5075818;28;20070;-67
2022/01/12 05:35:50;;;;;;;33.40;17.60;;;;;;;1.90;100.00;103623.06;5076081;28;20028;-67
2022/01/12 05:38:16;;;;;;;34.13;17.70;;;;;;;1.92;100.00;103635.25;5076126;28;20508;-67
2022/01/12 05:40:46;;;;;;;37.63;19.33;;;;;;;1.93;100.00;103638.72;5075972;28;20031;-67
2022/01/12 05:43:11;;;;;;;35.25;18.30;;;;;;;1.90;100.00;103639.72;5074716;28;20391;-67
2022/01/12 05:45:39;;;;;;;36.35;18.38;;;;;;;1.95;100.00;103636.88;5094625;28;20024;-66
2022/01/12 05:50:38;;;;;;;34.58;18.73;;;;;;;1.93;100.00;103643.97;5094066;28;20028;-67
2022/01/12 05:53:04;;;;;;;36.75;18.33;;;;;;;1.94;100.00;103640.44;5091232;28;20087;-67
2022/01/12 05:55:30;;;;;;;36.20;17.27;;;;;;;1.93;100.00;103639.56;5092047;28;20506;-67
2022/01/12 05:57:56;;;;;;;33.35;19.83;;;;;;;1.96;100.00;103635.94;5092010;28;20061;-66
2022/01/12 06:00:24;;;;;;;31.50;16.88;;;;;;;1.96;100.00;103633.31;5091895;28;20040;-67
2022/01/12 06:02:50;;;;;;;39.85;20.05;;;;;;;1.98;100.00;103642.84;5091864;28;20456;-67
2022/01/12 06:05:18;;;;;;;36.67;19.17;;;;;;;2.00;100.00;103639.31;5092207;28;20056;-66
2022/01/12 06:07:44;;;;;;;34.03;17.02;;;;;;;1.99;100.00;103643.69;5072541;28;20028;-66
2022/01/12 06:10:09;;;;;;;40.08;19.67;;;;;;;2.01;100.00;103643.63;5072532;28;20036;-66
2022/01/12 06:12:35;;;;;;;35.35;18.98;;;;;;;2.01;100.00;103641.00;5072130;28;20062;-67
2022/01/12 06:15:00;;;;;;;35.70;17.27;;;;;;;2.02;100.00;103642.69;5072122;28;20085;-67
2022/01/12 06:17:25;;;;;;;39.92;23.02;;;;;;;2.02;100.00;103651.47;5072330;28;20036;-67
2022/01/12 06:19:51;;;;;;;35.42;21.17;;;;;;;2.00;100.00;103644.56;5072262;28;20659;-67
2022/01/12 06:22:16;;;;;;;41.92;19.98;;;;;;;2.03;100.00;103658.44;5080381;28;20110;-67
2022/01/12 06:24:41;;;;;;;38.63;20.20;;;;;;;1.95;100.00;103656.16;5091665;28;20485;-66
2022/01/12 06:27:09;;;;;;;36.08;19.88;;;;;;;2.01;100.00;103657.63;5091286;28;20024;-67
2022/01/12 06:29:49;;;;;;;41.17;19.52;;;;;;;2.03;100.00;103676.84;5091408;28;20024;-67
2022/01/12 06:32:14;;;;;;;37.47;19.77;;;;;;;2.05;100.00;103682.91;5091471;28;20475;-67
2022/01/12 06:34:39;;;;;;;36.97;19.67;;;;;;;2.06;100.00;103692.50;5091272;28;20053;-66
2022/01/12 06:37:05;;;;;;;35.90;18.55;;;;;;;2.02;100.00;103680.41;5091287;28;20032;-66
2022/01/12 06:39:30;;;;;;;35.50;20.65;;;;;;;2.05;100.00;103687.31;5089795;28;20032;-67
2022/01/12 06:41:56;;;;;;;34.17;17.83;;;;;;;2.07;100.00;103699.50;5091169;28;20028;-66
2022/01/12 06:44:22;;;;;;;37.88;20.90;;;;;;;2.06;100.00;103710.06;5091106;28;20696;-67
2022/01/12 06:46:50;;;;;;;39.65;19.00;;;;;;;2.04;100.00;103720.66;5091047;28;20050;-66
2022/01/12 06:49:16;;;;;;;38.60;18.20;;;;;;;2.05;100.00;103708.38;5091273;28;20085;-67
2022/01/12 06:51:42;;;;;;;33.95;18.65;;;;;;;2.04;100.00;103712.75;5071623;28;20028;-67
2022/01/12 06:54:08;;;;;;;37.72;19.73;;;;;;;1.97;100.00;103700.84;5071227;28;20507;-67
2022/01/12 06:56:34;;;;;;;37.75;21.05;;;;;;;2.05;100.00;103713.66;5071491;28;20044;-66
2022/01/12 06:58:59;;;;;;;33.78;19.08;;;;;;;2.03;100.00;103707.59;5071597;28;20086;-66
2022/01/12 07:01:25;;;;;;;37.30;20.33;;;;;;;2.06;100.00;103713.56;5090712;28;20032;-67
2022/01/12 07:03:50;;;;;;;38.65;19.27;;;;;;;2.08;100.00;103721.41;5090627;28;20030;-66
2022/01/12 07:06:16;;;;;;;41.22;22.55;;;;;;;2.08;100.00;103721.41;5090726;28;20039;-67
2022/01/12 07:08:41;;;;;;;36.28;19.23;;;;;;;2.08;100.00;103726.66;5090733;28;20077;-66
2022/01/12 07:11:07;;;;;;;38.83;19.00;;;;;;;2.07;100.00;103727.56;5090542;28;20062;-66
2022/01/12 07:13:32;;;;;;;40.25;21.05;;;;;;;2.10;100.00;103741.47;5090572;28;20459;-67
2022/01/12 07:15:58;;;;;;;39.53;21.23;;;;;;;2.11;100.00;103732.63;5090414;28;20035;-67
2022/01/12 07:18:26;;;;;;;38.78;21.02;;;;;;;2.10;100.00;103728.31;5090457;28;20035;-66
2022/01/12 07:20:52;;;;;;;37.33;20.48;;;;;;;2.10;100.00;103720.41;5089161;28;20081;-66
2022/01/12 07:23:17;;;;;;;37.38;20.10;;;;;;;2.11;100.00;103730.00;5090731;28;20028;-67
2022/01/12 07:25:43;;;;;;;34.35;19.63;;;;;;;2.15;100.00;103736.00;5090329;28;20543;-66
2022/01/12 07:28:09;;;;;;;39.28;20.10;;;;;;;2.15;100.00;103738.63;5090340;28;20421;-66
2022/01/12 07:30:34;;;;;;;34.03;18.35;;;;;;;2.15;100.00;103743.91;5090189;28;20039;-67
2022/01/12 07:33:00;;;;;;;40.63;20.20;;;;;;;2.15;100.00;103744.75;5090268;28;20115;-67
2022/01/12 07:35:25;;;;;;;40.38;18.63;;;;;;;2.15;100.00;103759.69;5090076;28;20107;-67
2022/01/12 07:37:51;;;;;;;38.28;19.05;;;;;;;2.14;100.00;103765.88;5090273;28;20486;-67
2022/01/12 07:40:16;;;;;;;38.72;18.85;;;;;;;2.15;100.00;103771.06;5090178;28;20051;-67
2022/01/12 07:42:43;;;;;;;47.63;22.92;;;;;;;2.14;100.00;103777.25;5089931;28;20089;-67
2022/01/12 07:45:09;;;;;;;36.45;20.70;;;;;;;2.17;100.00;103781.50;5090118;28;20028;-67
2022/01/12 07:47:34;;;;;;;34.70;20.83;;;;;;;2.17;100.00;103779.75;5090059;28;20148;-67
2022/01/12 07:50:01;;;;;;;41.05;22.40;;;;;;;2.17;100.00;103770.97;5090016;28;20049;-66
2022/01/12 07:52:27;;;;;;;40.67;22.80;;;;;;;2.19;100.00;103777.88;5089774;28;20024;-67
2022/01/12 07:54:53;;;;;;;40.30;20.35;;;;;;;2.14;100.00;103773.75;5087891;28;20525;-67
2022/01/12 07:57:19;;;;;;;35.70;17.77;;;;;;;2.22;100.00;103789.22;5088569;28;20047;-67
2022/01/12 07:59:44;;;;;;;35.55;18.95;;;;;;;2.22;100.00;103786.59;5089568;28;20066;-67
2022/01/12 08:02:11;;;;;;;41.95;21.02;;;;;;;2.26;100.00;103801.34;5089526;28;20529;-67
2022/01/12 08:04:37;;;;;;;36.55;19.25;;;;;;;2.27;100.00;103803.88;5089323;28;20162;-66
2022/01/12 08:07:03;;;;;;;37.92;19.80;;;;;;;2.28;100.00;103818.78;5089530;28;20055;-67
2022/01/12 08:09:29;;;;;;;37.38;20.05;;;;;;;2.27;100.00;103809.16;5088223;28;20028;-66
2022/01/12 08:11:54;;;;;;;38.88;18.33;;;;;;;2.31;100.00;103818.63;5089391;28;20471;-67
2022/01/12 08:14:20;;;;;;;47.63;21.23;;;;;;;2.31;100.00;103826.53;5087454;28;20046;-67
2022/01/12 08:16:45;;;;;;;43.03;19.20;;;;;;;2.32;100.00;103841.41;5087757;28;20036;-67
2022/01/12 08:19:10;;;;;;;45.38;23.23;;;;;;;2.32;100.00;103836.13;5089187;28;20109;-67
2022/01/12 08:21:36;;;;;;;38.50;19.08;;;;;;;2.29;100.00;103825.75;5089312;28;20391;-67
2022/01/12 08:24:01;;;;;;;46.22;23.38;;;;;;;2.36;100.00;103834.22;5089156;28;20123;-66
2022/01/12 08:26:27;;;;;;;56.03;25.70;;;;;;;2.38;100.00;103840.25;5089352;28;20036;-67
2022/01/12 08:28:53;;;;;;;44.00;23.95;;;;;;;2.40;100.00;103839.28;5089342;28;20028;-66
2022/01/12 08:31:20;;;;;;;47.67;21.80;;;;;;;2.42;100.00;103841.84;5069849;28;20114;-67
2022/01/12 08:33:47;;;;;;;50.65;21.70;;;;;;;2.45;100.00;103844.34;5088963;28;20063;-66
2022/01/12 08:36:13;;;;;;;49.00;24.38;;;;;;;2.45;100.00;103843.50;5088992;28;20016;-67
2022/01/12 08:38:39;;;;;;;49.58;24.90;;;;;;;2.46;100.00;103843.41;5089148;28;20369;-66
2022/01/12 08:41:05;;;;;;;47.47;22.95;;;;;;;2.48;100.00;103851.25;5088939;28;20024;-67
2022/01/12 08:43:30;;;;;;;49.95;21.40;;;;;;;2.49;100.00;103842.41;5089155;28;20065;-66
2022/01/12 08:45:56;;;;;;;46.78;24.00;;;;;;;2.52;100.00;103835.25;5089088;28;20028;-67
2022/01/12 08:48:21;;;;;;;41.63;21.08;;;;;;;2.51;100.00;103830.03;5088462;28;20051;-66
2022/01/12 08:50:47;;;;;;;41.95;19.77;;;;;;;2.55;100.00;103839.50;5088685;28;20053;-66
2022/01/12 08:53:12;;;;;;;41.50;20.67;;;;;;;2.56;100.00;103838.56;5088845;28;20387;-66
2022/01/12 08:55:38;;;;;;;47.65;22.98;;;;;;;2.64;100.00;103846.97;5088864;28;21906;-67
2022/01/12 08:58:03;;;;;;;42.83;22.05;;;;;;;2.67;100.00;103846.84;5088845;28;20043;-67
2022/01/12 09:00:29;;;;;;;49.58;23.08;;;;;;;2.66;100.00;103844.28;5088943;28;20471;-67
2022/01/12 09:02:55;;;;;;;51.78;21.33;;;;;;;2.71;100.00;103845.78;5089127;28;20032;-65
2022/01/12 09:05:20;;;;;;;46.97;19.20;;;;;;;2.72;100.00;103844.84;5089128;28;20063;-66
2022/01/12 09:07:45;;;;;;;45.40;20.55;;;;;;;2.72;100.00;103850.13;5088884;28;20024;-66
2022/01/12 09:10:12;;;;;;;46.70;21.00;;;;;;;2.79;100.00;103855.97;5087567;28;20081;-66
2022/01/12 09:12:37;;;;;;;44.67;23.13;;;;;;;2.82;100.00;103861.94;5088718;28;20028;-66
2022/01/12 09:15:08;;;;;;;44.58;20.65;;;;;;;2.87;100.00;103861.72;5088571;28;20047;-66
2022/01/12 09:17:33;;;;;;;41.78;19.42;;;;;;;2.88;100.00;103870.50;5088206;28;20958;-66
2022/01/12 09:19:59;;;;;;;48.97;21.60;;;;;;;2.89;100.00;103873.06;5088680;28;20068;-67
2022/01/12 09:22:24;;;;;;;45.65;20.45;;;;;;;2.88;100.00;103878.41;5088654;28;20162;-66
2022/01/12 09:24:50;;;;;;;36.72;16.65;;;;;;;2.88;100.00;103876.63;5086623;28;20043;-66
2022/01/12 09:27:17;;;;;;;35.13;16.08;;;;;;;2.87;100.00;103882.81;5075321;28;20024;-66
2022/01/12 09:29:43;;;;;;;33.72;18.08;;;;;;;2.88;100.00;103886.31;5077529;28;20050;-66
2022/01/12 09:32:08;;;;;;;40.25;17.77;;;;;;;2.84;100.00;103886.44;5076248;28;20089;-66
2022/01/12 09:34:34;;;;;;;43.50;19.58;;;;;;;2.86;100.00;103902.22;5075632;28;20028;-69
2022/01/12 09:37:00;;;;;;;38.72;19.08;;;;;;;2.87;100.00;103903.06;5076995;28;20035;-68
2022/01/12 09:39:26;;;;;;;41.08;16.67;;;;;;;2.85;100.00;103908.38;5076527;28;20453;-68
2022/01/12 09:41:51;;;;;;;33.80;14.02;;;;;;;2.80;100.00;103889.28;5077572;28;20028;-70
2022/01/12 09:44:17;;;;;;;37.38;18.90;;;;;;;2.87;100.00;103914.44;5076973;28;20959;-69
2022/01/12 09:46:43;;;;;;;46.15;19.45;;;;;;;2.83;100.00;103910.25;5075389;28;20395;-67
2022/01/12 09:49:08;;;;;;;35.55;18.30;;;;;;;2.85;100.00;103925.06;5075820;28;20031;-67
2022/01/12 09:51:34;;;;;;;39.55;19.50;;;;;;;2.83;100.00;103921.66;5075574;28;20115;-67
2022/01/12 09:53:59;;;;;;;37.42;15.43;;;;;;;2.83;100.00;103919.03;5076241;28;20040;-68
2022/01/12 09:56:28;;;;;;;48.80;16.77;;;;;;;2.83;100.00;103928.72;5076023;28;20033;-67
2022/01/12 09:58:56;;;;;;;42.20;16.27;;;;;;;2.74;100.00;103923.84;5076404;28;20024;-67
2022/01/12 10:01:36;;;;;;;43.42;18.10;;;;;;;2.82;100.00;103933.09;5075982;28;20147;-70
2022/01/12 10:04:18;;;;;;;40.10;17.85;;;;;;;2.82;100.00;103941.00;5076981;28;20344;-71
2022/01/12 10:06:46;;;;;;;60.75;19.77;;;;;;;2.77;100.00;103937.72;5075246;28;20055;-70
2022/01/12 10:09:15;;;;;;;37.03;14.48;;;;;;;2.78;100.00;103939.47;5075572;28;20025;-67
2022/01/12 10:11:50;;;;;;;32.67;13.68;;;;;;;2.75;100.00;103939.59;5077107;28;20056;-70
2022/01/12 10:14:16;;;;;;;41.75;13.75;;;;;;;2.71;100.00;103938.00;5075702;28;20051;-71
2022/01/12 10:16:57;;;;;;;46.65;29.55;;;;;;;2.75;100.00;103938.72;5075328;28;20085;-69
2022/01/12 10:19:31;;;;;;;48.03;21.65;;;;;;;2.78;100.00;103944.72;5075840;28;20470;-70
2022/01/12 10:21:58;;;;;;;45.33;15.98;;;;;;;2.79;100.00;103940.31;5075622;28;20044;-68
2022/01/12 10:24:24;;;;;;;35.75;15.45;;;;;;;2.74;100.00;103926.47;5076748;28;20374;-69
2022/01/12 10:26:51;;;;;;;44.63;17.35;;;;;;;2.83;100.00;103934.00;5075336;28;20075;-67
2022/01/12 10:29:20;;;;;;;46.75;16.13;;;;;;;2.84;100.00;103936.53;5075716;28;20042;-69
2022/01/12 10:31:50;;;;;;;47.35;16.45;;;;;;;2.84;100.00;103928.63;5075637;28;20320;-69
2022/01/12 10:34:17;;;;;;;40.08;16.15;;;;;;;2.83;100.00;103932.19;5075939;28;20024;-70
2022/01/12 10:36:44;;;;;;;34.25;15.07;;;;;;;2.83;100.00;103942.75;5076006;28;20032;-69
2022/01/12 10:39:12;;;;;;;66.05;19.35;;;;;;;2.83;100.00;103937.47;5075722;28;20028;-68
2022/01/12 10:42:02;;;;;;;43.90;14.77;;;;;;;2.83;100.00;103948.00;5073858;28;20491;-70
2022/01/12 10:44:30;;;;;;;38.97;14.77;;;;;;;2.70;100.00;103933.69;5075517;28;20522;-70
2022/01/12 10:47:03;;;;;;;53.83;17.38;;;;;;;2.69;100.00;103939.00;5075312;28;20025;-70
2022/01/12 10:49:30;;;;;;;29.10;12.88;;;;;;;2.67;100.00;103946.97;5075812;28;20398;-70
2022/01/12 10:51:57;;;;;;;35.15;12.98;;;;;;;2.57;100.00;103936.00;5074947;28;20105;-69
2022/01/12 10:54:23;;;;;;;34.85;15.77;;;;;;;2.52;100.00;103937.13;5069993;28;20080;-67
2022/01/12 10:56:49;;;;;;;40.00;15.57;;;;;;;2.49;100.00;103948.66;5071509;28;20044;-67
2022/01/12 10:59:20;;;;;;;29.42;13.13;;;;;;;2.52;100.00;103945.88;5090236;28;20105;-67
2022/01/12 11:01:46;;;;;;;33.97;13.48;;;;;;;2.59;100.00;103949.97;5090193;28;20032;-67
2022/01/12 11:04:12;;;;;;;38.30;14.38;;;;;;;2.59;100.00;103942.06;5090665;28;20050;-68
2022/01/12 11:06:37;;;;;;;33.08;13.88;;;;;;;2.67;100.00;103939.06;5089157;28;20028;-67
2022/01/12 11:09:04;;;;;;;31.15;13.73;;;;;;;2.56;100.00;103905.28;5090599;28;20036;-67
2022/01/12 11:11:30;;;;;;;31.67;14.80;;;;;;;2.79;100.00;103935.03;5090538;28;20051;-67
2022/01/12 11:13:55;;;;;;;31.65;13.07;;;;;;;2.83;100.00;103948.00;5071048;28;20467;-67
2022/01/12 11:16:28;;;;;;;34.08;14.98;;;;;;;2.79;100.00;103946.44;5071096;28;20056;-67
2022/01/12 11:18:54;;;;;;;36.35;14.07;;;;;;;2.72;100.00;103939.72;5090489;28;20042;-67
2022/01/12 11:21:43;;;;;;;31.15;12.52;;;;;;;2.67;100.00;103939.06;5089885;28;20039;-67
2022/01/12 11:24:14;;;;;;;29.75;13.50;;;;;;;2.69;100.00;103949.53;5090349;28;20543;-67
2022/01/12 11:26:51;;;;;;;35.53;13.95;;;;;;;2.75;100.00;103952.78;5090229;28;20035;-68
2022/01/12 11:29:29;;;;;;;27.75;13.52;;;;;;;2.81;100.00;103955.13;5090171;28;20459;-67
2022/01/12 11:32:21;;;;;;;36.28;16.00;;;;;;;2.84;100.00;103956.78;5090160;28;20064;-68
2022/01/12 11:34:46;;;;;;;;;;;;;;;2.91;100.00;103959.97;5071353;28;20537;-67
2022/01/12 11:37:16;;;;;;;34.13;16.13;;;;;;;2.96;100.00;103963.25;5070470;28;19924;-67
2022/01/12 11:39:42;;;;;;;40.55;20.02;;;;;;;2.97;100.00;103959.72;5090437;28;20280;-68
2022/01/12 11:42:08;;;;;;;38.70;17.13;;;;;;;3.01;100.00;103954.25;5088856;28;20028;-67
2022/01/12 11:44:36;;;;;;;31.23;14.57;;;;;;;3.02;100.00;103953.28;5089934;28;20389;-67
2022/01/12 11:47:03;;;;;;;43.67;24.40;;;;;;;3.04;100.00;103940.06;5089973;28;20020;-67
2022/01/12 11:49:29;;;;;;;39.15;18.08;;;;;;;3.06;100.00;103933.75;5089333;28;20035;-67
2022/01/12 11:51:55;;;;;;;33.05;13.32;;;;;;;3.05;100.00;103920.66;5089932;28;20023;-67
2022/01/12 11:54:29;;;;;;;33.60;13.48;;;;;;;3.05;100.00;103918.03;5089078;28;20067;-67
2022/01/12 11:56:55;;;;;;;28.38;12.95;;;;;;;3.06;100.00;103919.72;5080819;28;20062;-67
2022/01/12 11:59:23;;;;;;;28.65;12.30;;;;;;;3.04;100.00;103934.78;5070318;28;20032;-67
2022/01/12 12:02:06;;;;;;;30.90;13.55;;;;;;;3.01;100.00;103925.22;5078267;28;20111;-67
2022/01/12 12:04:33;;;;;;;28.90;11.77;;;;;;;2.96;100.00;103948.31;5070443;28;20360;-67
2022/01/12 12:07:06;;;;;;;37.17;12.85;;;;;;;2.89;100.00;103946.03;5070301;28;20034;-67
2022/01/12 12:09:43;;;;;;;29.75;11.15;;;;;;;2.80;100.00;103947.28;5089467;28;20028;-67
2022/01/12 12:12:20;;;;;;;27.45;10.43;;;;;;;2.76;100.00;103949.22;5089404;28;20398;-67
2022/01/12 12:14:53;;;;;;;29.15;11.32;;;;;;;2.81;100.00;103935.84;5089486;28;20031;-67
2022/01/12 12:17:20;;;;;;;32.20;12.80;;;;;;;2.90;100.00;103938.03;5089413;28;20460;-67
2022/01/12 12:19:47;;;;;;;33.80;12.57;;;;;;;3.01;100.00;103943.69;5089355;28;20032;-67
2022/01/12 12:22:33;;;;;;;32.92;13.68;;;;;;;3.13;100.00;103942.25;5089146;28;20099;-68
2022/01/12 12:25:01;;;;;;;34.00;14.75;;;;;;;3.20;100.00;103945.47;5087751;28;20130;-68
2022/01/12 12:27:29;;;;;;;33.30;11.15;;;;;;;3.25;100.00;103951.38;5089378;28;20072;-68
2022/01/12 12:29:55;;;;;;;33.63;13.65;;;;;;;3.25;100.00;103948.75;5089278;28;20035;-68
2022/01/12 12:32:36;;;;;;;28.98;11.93;;;;;;;3.24;100.00;103944.38;5089355;28;20065;-68
2022/01/12 12:35:06;;;;;;;31.73;12.73;;;;;;;3.29;100.00;103943.22;5089299;28;20170;-68
2022/01/12 12:37:42;;;;;;;33.70;13.75;;;;;;;3.32;100.00;103944.88;5089202;28;20420;-68